FAB1337 SBYS-SBYS

Flight info

Callsign FAB1337
Flight time 0h 43m
Altitude FL115
Route DCT
Aircraft TUCA/L-S/N

Departure

Time 2026-04-21 23:38
Airport Campo Fontenelle (SBYS)

Arrival

Time 2026-04-22 00:22
Airport Campo Fontenelle (SBYS)
Time Latitude Longitude Altitude Speed Heading
2026-04-21 23:24 -21.98065 -47.33956 1971 ft 0 kts 269°
2026-04-21 23:29 -21.98066 -47.33966 1971 ft 0 kts 265°
2026-04-21 23:29 -21.98057 -47.33978 1971 ft 5 kts 352°
2026-04-21 23:30 -21.97997 -47.33978 1973 ft 8 kts
2026-04-21 23:30 -21.97968 -47.33981 1974 ft 0 kts 310°
2026-04-21 23:30 -21.97946 -47.34005 1971 ft 9 kts
2026-04-21 23:30 -21.97860 -47.34006 1973 ft 15 kts 360°
2026-04-21 23:31 -21.97777 -47.34006 1971 ft 13 kts 359°
2026-04-21 23:31 -21.97679 -47.34006 1974 ft 14 kts 359°
2026-04-21 23:31 -21.97584 -47.34008 1973 ft 12 kts 341°
2026-04-21 23:31 -21.97566 -47.34037 1971 ft 0 kts 270°
2026-04-21 23:34 -21.97568 -47.34064 1971 ft 11 kts 268°
2026-04-21 23:34 -21.97616 -47.34116 1973 ft 9 kts 165°
2026-04-21 23:34 -21.97646 -47.34113 1972 ft 0 kts 179°
2026-04-21 23:35 -21.97647 -47.34113 1972 ft 0 kts 180°
2026-04-21 23:37 -21.97660 -47.34110 1970 ft 16 kts 169°
2026-04-21 23:37 -21.97988 -47.34111 1970 ft 76 kts 180°
2026-04-21 23:37 -21.98649 -47.34112 1990 ft 109 kts 179°
2026-04-21 23:38 -21.99425 -47.34098 2137 ft 117 kts 180°
2026-04-21 23:38 -22.00308 -47.34096 2313 ft 135 kts 180°
2026-04-21 23:38 -22.01237 -47.34255 2524 ft 142 kts 211°
2026-04-21 23:38 -22.01718 -47.35144 2820 ft 143 kts 262°
2026-04-21 23:39 -22.01736 -47.36226 3135 ft 145 kts 266°
2026-04-21 23:39 -22.01717 -47.37323 3485 ft 150 kts 268°
2026-04-21 23:39 -22.01661 -47.38445 3859 ft 152 kts 271°
2026-04-21 23:39 -22.01578 -47.39573 4271 ft 149 kts 271°
2026-04-21 23:40 -22.01495 -47.40690 4639 ft 151 kts 274°
2026-04-21 23:40 -22.01342 -47.41795 5023 ft 148 kts 279°
2026-04-21 23:40 -22.01133 -47.42890 5265 ft 154 kts 282°
2026-04-21 23:40 -22.00944 -47.44035 5505 ft 155 kts 269°
2026-04-21 23:41 -22.01057 -47.45165 5851 ft 150 kts 259°
2026-04-21 23:41 -22.01196 -47.46276 6145 ft 152 kts 259°
2026-04-21 23:41 -22.01404 -47.47409 6277 ft 158 kts 257°
2026-04-21 23:41 -22.01602 -47.48563 6535 ft 155 kts 259°
2026-04-21 23:42 -22.01744 -47.49715 6723 ft 157 kts 262°
2026-04-21 23:42 -22.01836 -47.50883 6954 ft 156 kts 264°
2026-04-21 23:42 -22.01888 -47.52068 7034 ft 162 kts 268°
2026-04-21 23:42 -22.01875 -47.53268 7311 ft 155 kts 269°
2026-04-21 23:43 -22.01809 -47.54424 7564 ft 155 kts 278°
2026-04-21 23:43 -22.01490 -47.55543 7760 ft 158 kts 294°
2026-04-21 23:43 -22.00907 -47.56556 7961 ft 162 kts 306°
2026-04-21 23:43 -22.00212 -47.57499 8222 ft 159 kts 307°
2026-04-21 23:44 -21.99543 -47.58452 8377 ft 164 kts 305°
2026-04-21 23:44 -21.98867 -47.59453 8483 ft 166 kts 306°
2026-04-21 23:44 -21.98160 -47.60465 8590 ft 172 kts 305°
2026-04-21 23:44 -21.97318 -47.61388 8710 ft 175 kts 323°
2026-04-21 23:45 -21.96190 -47.61874 8783 ft 179 kts 352°
2026-04-21 23:45 -21.93658 -47.61868 8884 ft 183 kts
2026-04-21 23:45 -21.92385 -47.62003 8843 ft 188 kts 346°
2026-04-21 23:46 -21.91251 -47.62671 8788 ft 189 kts 314°
2026-04-21 23:46 -21.90658 -47.63912 8664 ft 190 kts 279°
2026-04-21 23:46 -21.90858 -47.65279 8499 ft 189 kts 239°
2026-04-21 23:46 -21.91839 -47.66147 8469 ft 182 kts 199°
2026-04-21 23:47 -21.93069 -47.66244 8517 ft 177 kts 178°
2026-04-21 23:47 -21.94291 -47.66198 8519 ft 176 kts 177°
2026-04-21 23:47 -21.95504 -47.66084 8590 ft 173 kts 174°
2026-04-21 23:47 -21.96706 -47.65991 8585 ft 177 kts 178°
2026-04-21 23:48 -21.97965 -47.65995 8429 ft 184 kts 181°
2026-04-21 23:48 -21.99199 -47.65687 8202 ft 190 kts 148°
2026-04-21 23:48 -21.99977 -47.64516 7757 ft 201 kts 105°
2026-04-21 23:48 -21.99916 -47.63050 7636 ft 191 kts 83°
2026-04-21 23:49 -21.99798 -47.61675 7665 ft 184 kts 85°
2026-04-21 23:49 -21.99668 -47.60292 7526 ft 186 kts 85°
2026-04-21 23:49 -21.99539 -47.58910 7430 ft 185 kts 84°
2026-04-21 23:49 -21.99423 -47.57545 7419 ft 181 kts 86°
2026-04-21 23:50 -21.99314 -47.56190 7401 ft 182 kts 84°
2026-04-21 23:50 -21.99184 -47.54842 7417 ft 179 kts 84°
2026-04-21 23:50 -21.99052 -47.53519 7428 ft 178 kts 86°
2026-04-21 23:50 -21.98963 -47.52191 7441 ft 178 kts 85°
2026-04-21 23:51 -21.98861 -47.50867 7463 ft 178 kts 86°
2026-04-21 23:51 -21.98767 -47.49536 7459 ft 178 kts 86°
2026-04-21 23:51 -21.98709 -47.48204 7446 ft 179 kts 89°
2026-04-21 23:51 -21.98674 -47.46866 7442 ft 180 kts 87°
2026-04-21 23:52 -21.98617 -47.45534 7512 ft 176 kts 88°
2026-04-21 23:52 -21.98519 -47.44222 7566 ft 175 kts 84°
2026-04-21 23:52 -21.98389 -47.42921 7592 ft 175 kts 83°
2026-04-21 23:52 -21.98242 -47.41593 7481 ft 182 kts 84°
2026-04-21 23:53 -21.98142 -47.40255 7553 ft 177 kts 86°
2026-04-21 23:53 -21.98052 -47.38920 7559 ft 182 kts 86°
2026-04-21 23:53 -21.97958 -47.37523 7351 ft 199 kts 85°
2026-04-21 23:53 -21.97853 -47.35963 6781 ft 217 kts 86°
2026-04-21 23:54 -21.97797 -47.34525 7288 ft 20 kts 207°
2026-04-21 23:54 -21.97897 -47.34652 5984 ft 180 kts 94°
2026-04-21 23:54 -21.97994 -47.33349 5841 ft 166 kts 94°
2026-04-21 23:54 -21.97800 -47.32149 5805 ft 168 kts 59°
2026-04-21 23:55 -21.97186 -47.31088 5970 ft 164 kts 56°
2026-04-21 23:55 -21.96567 -47.30111 6403 ft 154 kts 52°
2026-04-21 23:55 -21.95964 -47.29191 6839 ft 148 kts 55°
2026-04-21 23:55 -21.95374 -47.28284 7091 ft 152 kts 53°
2026-04-21 23:56 -21.95042 -47.27196 6996 ft 164 kts 63°
2026-04-21 23:56 -21.94042 -47.26885 7094 ft 157 kts
2026-04-21 23:56 -21.93096 -47.26324 7202 ft 162 kts 40°
2026-04-21 23:56 -21.92759 -47.25295 7194 ft 170 kts 117°
2026-04-21 23:57 -21.93649 -47.24515 7198 ft 175 kts 148°
2026-04-21 23:57 -21.93630 -47.23465 7161 ft 171 kts 20°
2026-04-21 23:57 -21.92481 -47.23377 7189 ft 168 kts 32°
2026-04-21 23:57 -21.91822 -47.22283 7083 ft 180 kts 60°
2026-04-21 23:58 -21.91220 -47.21089 7160 ft 183 kts 60°
2026-04-21 23:58 -21.90634 -47.19877 7283 ft 183 kts 62°
2026-04-21 23:58 -21.90058 -47.18663 7364 ft 183 kts 62°
2026-04-21 23:58 -21.89479 -47.17426 7359 ft 188 kts 62°
2026-04-21 23:59 -21.88878 -47.16160 7327 ft 191 kts 64°
2026-04-21 23:59 -21.88333 -47.14848 7251 ft 193 kts 64°
2026-04-21 23:59 -21.87696 -47.13575 7179 ft 192 kts 59°
2026-04-21 23:59 -21.86822 -47.12498 7136 ft 192 kts 34°
2026-04-22 00:00 -21.85626 -47.11890 7102 ft 191 kts 21°
2026-04-22 00:00 -21.84401 -47.11379 7110 ft 187 kts 20°
2026-04-22 00:00 -21.83199 -47.10880 7178 ft 184 kts 21°
2026-04-22 00:00 -21.81961 -47.10908 6651 ft 200 kts 329°
2026-04-22 00:01 -21.81037 -47.11790 6253 ft 176 kts 306°
2026-04-22 00:01 -21.80568 -47.13006 6085 ft 180 kts 282°
2026-04-22 00:01 -21.80485 -47.14359 5970 ft 183 kts 268°
2026-04-22 00:01 -21.80694 -47.15719 5803 ft 187 kts 257°
2026-04-22 00:02 -21.81066 -47.17068 5758 ft 192 kts 252°
2026-04-22 00:02 -21.81497 -47.18361 5620 ft 177 kts 248°
2026-04-22 00:02 -21.82069 -47.19534 5566 ft 182 kts 237°
2026-04-22 00:02 -21.82857 -47.20605 5594 ft 186 kts 229°
2026-04-22 00:03 -21.83765 -47.21592 5588 ft 184 kts 223°
2026-04-22 00:03 -21.84717 -47.22440 5780 ft 177 kts 218°
2026-04-22 00:03 -21.85715 -47.23200 6006 ft 169 kts 213°
2026-04-22 00:03 -21.86651 -47.23832 6266 ft 150 kts 212°
2026-04-22 00:04 -21.87550 -47.24387 6598 ft 140 kts 210°
2026-04-22 00:04 -21.88365 -47.24870 6777 ft 129 kts 208°
2026-04-22 00:04 -21.89165 -47.25370 6819 ft 143 kts 213°
2026-04-22 00:04 -21.89991 -47.25890 6863 ft 136 kts 211°
2026-04-22 00:05 -21.90843 -47.26421 6927 ft 146 kts 211°
2026-04-22 00:05 -21.91714 -47.26962 6915 ft 150 kts 211°
2026-04-22 00:05 -21.92705 -47.27603 6370 ft 175 kts 212°
2026-04-22 00:05 -21.93814 -47.28378 5936 ft 160 kts 218°
2026-04-22 00:06 -21.93676 -47.28243 6730 ft 48 kts 27°
2026-04-22 00:06 -21.94153 -47.29146 4814 ft 199 kts 238°
2026-04-22 00:06 -21.94838 -47.30339 4967 ft 176 kts 240°
2026-04-22 00:06 -21.95428 -47.31431 5268 ft 165 kts 238°
2026-04-22 00:07 -21.96034 -47.32509 5415 ft 167 kts 238°
2026-04-22 00:07 -21.96618 -47.33538 5845 ft 156 kts 239°
2026-04-22 00:07 -21.97122 -47.34557 6220 ft 150 kts 244°
2026-04-22 00:07 -21.97226 -47.35588 6753 ft 135 kts 290°
2026-04-22 00:08 -21.96545 -47.36302 6963 ft 151 kts 328°
2026-04-22 00:08 -21.95597 -47.36914 7043 ft 166 kts 329°
2026-04-22 00:08 -21.94586 -47.37556 7128 ft 174 kts 329°
2026-04-22 00:08 -21.93523 -47.38257 7081 ft 183 kts 322°
2026-04-22 00:09 -21.92535 -47.39140 7025 ft 187 kts 319°
2026-04-22 00:09 -21.91539 -47.40044 6996 ft 189 kts 320°
2026-04-22 00:09 -21.90524 -47.40919 7002 ft 183 kts 321°
2026-04-22 00:09 -21.89875 -47.42025 6955 ft 177 kts 278°
2026-04-22 00:10 -21.89575 -47.43275 6796 ft 177 kts 306°
2026-04-22 00:10 -21.88508 -47.43751 6808 ft 166 kts 353°
2026-04-22 00:10 -21.87559 -47.43163 6654 ft 167 kts 56°
2026-04-22 00:10 -21.87003 -47.41981 6559 ft 191 kts 79°
2026-04-22 00:11 -21.87212 -47.40550 6440 ft 203 kts 114°
2026-04-22 00:11 -21.87913 -47.39313 6428 ft 192 kts 125°
2026-04-22 00:11 -21.88766 -47.38210 6544 ft 192 kts 135°
2026-04-22 00:11 -21.89724 -47.37328 6448 ft 182 kts 144°
2026-04-22 00:12 -21.90686 -47.36634 6538 ft 155 kts 147°
2026-04-22 00:12 -21.91530 -47.36069 6616 ft 140 kts 147°
2026-04-22 00:12 -21.92480 -47.35480 6088 ft 185 kts 152°
2026-04-22 00:12 -21.93631 -47.34912 6224 ft 36 kts 177°
2026-04-22 00:13 -21.93199 -47.35068 5368 ft 36 kts 111°
2026-04-22 00:13 -21.94318 -47.34257 4385 ft 188 kts 150°
2026-04-22 00:13 -21.95327 -47.33690 4816 ft 149 kts 155°
2026-04-22 00:13 -21.96271 -47.33205 4962 ft 146 kts 154°
2026-04-22 00:14 -21.97131 -47.32793 4934 ft 126 kts 162°
2026-04-22 00:14 -21.98034 -47.32405 4789 ft 151 kts 158°
2026-04-22 00:14 -21.99014 -47.32105 4804 ft 148 kts 168°
2026-04-22 00:14 -22.00048 -47.32071 4726 ft 145 kts 187°
2026-04-22 00:15 -22.01021 -47.32451 4635 ft 152 kts 210°
2026-04-22 00:15 -22.01838 -47.33165 4555 ft 148 kts 230°
2026-04-22 00:15 -22.02340 -47.34141 4503 ft 149 kts 251°
2026-04-22 00:15 -22.02532 -47.35233 4483 ft 154 kts 267°
2026-04-22 00:16 -22.02375 -47.36325 4398 ft 146 kts 288°
2026-04-22 00:16 -22.01913 -47.37343 4316 ft 141 kts 303°
2026-04-22 00:16 -22.01253 -47.38214 4261 ft 153 kts 313°
2026-04-22 00:16 -22.00486 -47.38983 4197 ft 154 kts 319°
2026-04-22 00:17 -21.99608 -47.39640 3966 ft 153 kts 331°
2026-04-22 00:17 -21.98645 -47.40140 3794 ft 153 kts 337°
2026-04-22 00:17 -21.97643 -47.40506 3686 ft 150 kts 347°
2026-04-22 00:17 -21.96630 -47.40563 3501 ft 149 kts
2026-04-22 00:18 -21.95623 -47.40341 3381 ft 148 kts 21°
2026-04-22 00:18 -21.94685 -47.39940 3297 ft 149 kts 29°
2026-04-22 00:18 -21.93819 -47.39391 3134 ft 146 kts 36°
2026-04-22 00:18 -21.93048 -47.38716 2989 ft 141 kts 50°
2026-04-22 00:19 -21.92449 -47.37903 2942 ft 134 kts 60°
2026-04-22 00:19 -21.92002 -47.37035 2899 ft 133 kts 68°
2026-04-22 00:19 -21.91755 -47.36060 2798 ft 133 kts 89°
2026-04-22 00:19 -21.92035 -47.35163 2802 ft 130 kts 131°
2026-04-22 00:20 -21.92716 -47.34581 2785 ft 129 kts 148°
2026-04-22 00:20 -21.93517 -47.34223 2770 ft 125 kts 168°
2026-04-22 00:20 -21.94359 -47.34168 2685 ft 112 kts 179°
2026-04-22 00:20 -21.95242 -47.34169 2508 ft 132 kts 180°
2026-04-22 00:21 -21.96126 -47.34148 2265 ft 128 kts 180°
2026-04-22 00:21 -21.96951 -47.34132 2079 ft 108 kts 181°
2026-04-22 00:21 -21.97639 -47.34134 1978 ft 94 kts 181°
2026-04-22 00:21 -21.98182 -47.34134 1973 ft 64 kts 180°
2026-04-22 00:22 -21.98573 -47.34134 1973 ft 52 kts 179°
2026-04-22 00:22 -21.98880 -47.34134 1972 ft 19 kts 180°
2026-04-22 00:22 -21.99019 -47.34118 1973 ft 28 kts 168°
2026-04-22 00:22 -21.99044 -47.34050 1972 ft 7 kts 90°
2026-04-22 00:23 -21.99008 -47.34002 1972 ft 16 kts 354°
2026-04-22 00:23 -21.98839 -47.34003 1971 ft 30 kts 359°
2026-04-22 00:23 -21.98633 -47.34003 1973 ft 25 kts 359°
2026-04-22 00:23 -21.98441 -47.34003 1971 ft 30 kts 359°
2026-04-22 00:24 -21.98247 -47.34004 1971 ft 22 kts
2026-04-22 00:24 -21.98158 -47.33997 1973 ft 5 kts 51°
2026-04-22 00:24 -21.98153 -47.33943 1971 ft 3 kts 45°
2026-04-22 00:24 -21.98097 -47.33944 1974 ft 5 kts 283°
2026-04-22 00:25 -21.98097 -47.33962 1971 ft 0 kts 269°